sensor_id;sensor_type;location;lat;lon;timestamp;pressure;altitude;pressure_sealevel;temperature;humidity
13486;BME280;6815;59.336;17.998;2024-03-02T00:00:19;91498.69;;;-145.37;100.00
13486;BME280;6815;59.336;17.998;2024-03-02T00:02:48;91484.56;;;-145.37;100.00
13486;BME280;6815;59.336;17.998;2024-03-02T00:05:20;91353.31;;;-145.37;100.00
13486;BME280;6815;59.336;17.998;2024-03-02T00:07:55;91967.19;;;-145.37;100.00
13486;BME280;6815;59.336;17.998;2024-03-02T00:10:30;91310.91;;;-145.37;100.00
13486;BME280;6815;59.336;17.998;2024-03-02T00:13:02;91478.50;;;-145.37;100.00
13486;BME280;6815;59.336;17.998;2024-03-02T00:18:12;91462.34;;;-145.37;100.00
13486;BME280;6815;59.336;17.998;2024-03-02T00:20:38;91500.72;;;-145.37;100.00
13486;BME280;6815;59.336;17.998;2024-03-02T00:23:05;91436.09;;;-145.37;100.00
13486;BME280;6815;59.336;17.998;2024-03-02T00:26:03;91492.63;;;-145.37;100.00
13486;BME280;6815;59.336;17.998;2024-03-02T00:28:33;91498.69;;;-145.37;100.00
13486;BME280;6815;59.336;17.998;2024-03-02T00:33:34;91492.63;;;-145.37;100.00
13486;BME280;6815;59.336;17.998;2024-03-02T00:36:01;91462.34;;;-145.37;100.00
13486;BME280;6815;59.336;17.998;2024-03-02T00:38:27;91448.22;;;-145.37;100.00
13486;BME280;6815;59.336;17.998;2024-03-02T00:40:53;91157.47;;;-145.37;100.00
13486;BME280;6815;59.336;17.998;2024-03-02T00:43:39;91510.81;;;-145.37;100.00
13486;BME280;6815;59.336;17.998;2024-03-02T00:46:06;91387.63;;;-145.37;100.00
13486;BME280;6815;59.336;17.998;2024-03-02T00:48:32;91500.72;;;-145.37;100.00
13486;BME280;6815;59.336;17.998;2024-03-02T00:51:01;91405.81;;;-145.37;100.00
13486;BME280;6815;59.336;17.998;2024-03-02T00:53:29;91464.38;;;-145.37;100.00
13486;BME280;6815;59.336;17.998;2024-03-02T00:55:55;91533.03;;;-145.37;100.00
13486;BME280;6815;59.336;17.998;2024-03-02T00:58:21;91512.84;;;-145.37;100.00
13486;BME280;6815;59.336;17.998;2024-03-02T01:00:46;91424.00;;;-145.37;100.00
13486;BME280;6815;59.336;17.998;2024-03-02T01:03:12;91945.00;;;-145.37;100.00
13486;BME280;6815;59.336;17.998;2024-03-02T01:05:41;91411.88;;;-145.37;100.00
13486;BME280;6815;59.336;17.998;2024-03-02T01:08:08;91492.63;;;-145.37;100.00
13486;BME280;6815;59.336;17.998;2024-03-02T01:10:33;91531.00;;;-145.37;100.00
13486;BME280;6815;59.336;17.998;2024-03-02T01:12:59;91488.59;;;-145.37;100.00
13486;BME280;6815;59.336;17.998;2024-03-02T01:15:25;92060.09;;;-145.37;100.00
13486;BME280;6815;59.336;17.998;2024-03-02T01:17:51;91496.69;;;-145.37;100.00
13486;BME280;6815;59.336;17.998;2024-03-02T01:20:16;91736.97;;;-145.37;100.00
13486;BME280;6815;59.336;17.998;2024-03-02T01:22:42;91460.34;;;-145.37;100.00
13486;BME280;6815;59.336;17.998;2024-03-02T01:25:08;91468.41;;;-145.37;100.00
13486;BME280;6815;59.336;17.998;2024-03-02T01:27:34;91462.34;;;-145.37;100.00
13486;BME280;6815;59.336;17.998;2024-03-02T01:29:59;91399.75;;;-145.37;100.00
13486;BME280;6815;59.336;17.998;2024-03-02T01:32:26;91177.66;;;-145.37;100.00
13486;BME280;6815;59.336;17.998;2024-03-02T01:34:52;91492.63;;;-145.37;100.00
13486;BME280;6815;59.336;17.998;2024-03-02T01:37:17;91496.69;;;-145.37;100.00
13486;BME280;6815;59.336;17.998;2024-03-02T01:39:43;91468.41;;;-145.37;100.00
13486;BME280;6815;59.336;17.998;2024-03-02T01:42:08;91516.88;;;-145.37;100.00
13486;BME280;6815;59.336;17.998;2024-03-02T01:44:36;91468.41;;;-145.37;100.00
13486;BME280;6815;59.336;17.998;2024-03-02T01:47:01;91385.63;;;-145.37;100.00
13486;BME280;6815;59.336;17.998;2024-03-02T01:49:27;91432.06;;;-145.37;100.00
13486;BME280;6815;59.336;17.998;2024-03-02T01:51:52;91512.84;;;-145.37;100.00
13486;BME280;6815;59.336;17.998;2024-03-02T01:54:18;91407.84;;;-145.37;100.00
13486;BME280;6815;59.336;17.998;2024-03-02T01:56:43;91486.59;;;-145.37;100.00
13486;BME280;6815;59.336;17.998;2024-03-02T01:59:09;91002.00;;;-145.37;100.00
13486;BME280;6815;59.336;17.998;2024-03-02T02:01:34;91480.53;;;-145.37;100.00
13486;BME280;6815;59.336;17.998;2024-03-02T02:04:01;91496.69;;;-145.37;100.00
13486;BME280;6815;59.336;17.998;2024-03-02T02:06:26;91470.44;;;-145.37;100.00
13486;BME280;6815;59.336;17.998;2024-03-02T02:08:52;91496.69;;;-145.37;100.00
13486;BME280;6815;59.336;17.998;2024-03-02T02:11:17;91430.03;;;-145.37;100.00
13486;BME280;6815;59.336;17.998;2024-03-02T02:13:43;91399.75;;;-145.37;100.00
13486;BME280;6815;59.336;17.998;2024-03-02T02:16:09;91333.13;;;-145.37;100.00
13486;BME280;6815;59.336;17.998;2024-03-02T02:18:35;91468.41;;;-145.37;100.00
13486;BME280;6815;59.336;17.998;2024-03-02T02:21:01;91456.28;;;-145.37;100.00
13486;BME280;6815;59.336;17.998;2024-03-02T02:23:27;91524.94;;;-145.37;100.00
13486;BME280;6815;59.336;17.998;2024-03-02T02:25:52;91478.50;;;-145.37;100.00
13486;BME280;6815;59.336;17.998;2024-03-02T02:28:18;91430.03;;;-145.37;100.00
13486;BME280;6815;59.336;17.998;2024-03-02T02:30:43;91506.78;;;-145.37;100.00
13486;BME280;6815;59.336;17.998;2024-03-02T02:33:09;92142.91;;;-145.37;100.00
13486;BME280;6815;59.336;17.998;2024-03-02T02:35:34;91506.78;;;-145.37;100.00
13486;BME280;6815;59.336;17.998;2024-03-02T02:38:00;91409.84;;;-145.37;100.00
13486;BME280;6815;59.336;17.998;2024-03-02T02:40:26;91480.53;;;-145.37;100.00
13486;BME280;6815;59.336;17.998;2024-03-02T02:42:54;91936.91;;;-145.37;100.00
13486;BME280;6815;59.336;17.998;2024-03-02T02:45:20;91516.88;;;-145.37;100.00
13486;BME280;6815;59.336;17.998;2024-03-02T02:47:45;91504.75;;;-145.37;100.00
13486;BME280;6815;59.336;17.998;2024-03-02T02:50:11;91512.84;;;-145.37;100.00
13486;BME280;6815;59.336;17.998;2024-03-02T02:52:39;91512.84;;;-145.37;100.00
13486;BME280;6815;59.336;17.998;2024-03-02T02:55:06;91480.53;;;-145.37;100.00
13486;BME280;6815;59.336;17.998;2024-03-02T02:57:33;91541.09;;;-145.37;100.00
13486;BME280;6815;59.336;17.998;2024-03-02T03:00:08;91478.50;;;-145.37;100.00
13486;BME280;6815;59.336;17.998;2024-03-02T03:02:43;91472.44;;;-145.37;100.00
13486;BME280;6815;59.336;17.998;2024-03-02T03:05:11;91526.97;;;-145.37;100.00
13486;BME280;6815;59.336;17.998;2024-03-02T03:07:39;91547.16;;;-145.37;100.00
13486;BME280;6815;59.336;17.998;2024-03-02T03:10:05;91529.00;;;-145.37;100.00
13486;BME280;6815;59.336;17.998;2024-03-02T03:12:32;91533.03;;;-145.37;100.00
13486;BME280;6815;59.336;17.998;2024-03-02T03:14:58;91543.13;;;-145.37;100.00
13486;BME280;6815;59.336;17.998;2024-03-02T03:17:24;91502.75;;;-145.37;100.00
13486;BME280;6815;59.336;17.998;2024-03-02T03:19:50;91492.63;;;-145.37;100.00
13486;BME280;6815;59.336;17.998;2024-03-02T03:22:16;91438.13;;;-145.37;100.00
13486;BME280;6815;59.336;17.998;2024-03-02T03:24:41;91389.66;;;-145.37;100.00
13486;BME280;6815;59.336;17.998;2024-03-02T03:27:07;91434.09;;;-145.37;100.00
13486;BME280;6815;59.336;17.998;2024-03-02T03:29:32;91466.38;;;-145.37;100.00
13486;BME280;6815;59.336;17.998;2024-03-02T03:31:58;91516.88;;;-145.37;100.00
13486;BME280;6815;59.336;17.998;2024-03-02T03:34:23;91947.00;;;-145.37;100.00
13486;BME280;6815;59.336;17.998;2024-03-02T03:36:49;91500.72;;;-145.37;100.00
13486;BME280;6815;59.336;17.998;2024-03-02T03:39:14;91537.06;;;-145.37;100.00
13486;BME280;6815;59.336;17.998;2024-03-02T03:41:40;91522.94;;;-145.37;100.00
13486;BME280;6815;59.336;17.998;2024-03-02T03:44:06;91369.47;;;-145.37;100.00
13486;BME280;6815;59.336;17.998;2024-03-02T03:46:31;91533.03;;;-145.37;100.00
13486;BME280;6815;59.336;17.998;2024-03-02T03:48:57;91450.25;;;-145.37;100.00
13486;BME280;6815;59.336;17.998;2024-03-02T03:51:22;91763.25;;;-145.37;100.00
13486;BME280;6815;59.336;17.998;2024-03-02T03:53:50;91510.81;;;-145.37;100.00
13486;BME280;6815;59.336;17.998;2024-03-02T03:56:16;91490.63;;;-145.37;100.00
13486;BME280;6815;59.336;17.998;2024-03-02T03:58:41;91924.78;;;-145.37;100.00
13486;BME280;6815;59.336;17.998;2024-03-02T04:01:07;91478.50;;;-145.37;100.00
13486;BME280;6815;59.336;17.998;2024-03-02T04:03:33;91478.50;;;-145.37;100.00
13486;BME280;6815;59.336;17.998;2024-03-02T04:05:59;91478.50;;;-145.37;100.00
13486;BME280;6815;59.336;17.998;2024-03-02T04:08:25;91444.19;;;-145.37;100.00
13486;BME280;6815;59.336;17.998;2024-03-02T04:10:50;91383.59;;;-145.37;100.00
13486;BME280;6815;59.336;17.998;2024-03-02T04:13:16;91365.44;;;-145.37;100.00
13486;BME280;6815;59.336;17.998;2024-03-02T04:15:41;91300.81;;;-145.37;100.00
13486;BME280;6815;59.336;17.998;2024-03-02T04:18:07;91524.94;;;-145.37;100.00
13486;BME280;6815;59.336;17.998;2024-03-02T04:20:32;91924.78;;;-145.37;100.00
13486;BME280;6815;59.336;17.998;2024-03-02T04:22:57;91543.13;;;-145.37;100.00
13486;BME280;6815;59.336;17.998;2024-03-02T04:25:24;91625.91;;;-145.37;100.00
13486;BME280;6815;59.336;17.998;2024-03-02T04:27:50;91448.22;;;-145.37;100.00
13486;BME280;6815;59.336;17.998;2024-03-02T04:30:15;91549.19;;;-145.37;100.00
13486;BME280;6815;59.336;17.998;2024-03-02T04:32:41;91478.50;;;-145.37;100.00
13486;BME280;6815;59.336;17.998;2024-03-02T04:35:07;91272.53;;;-145.37;100.00
13486;BME280;6815;59.336;17.998;2024-03-02T04:37:35;91498.69;;;-145.37;100.00
13486;BME280;6815;59.336;17.998;2024-03-02T04:40:00;91345.25;;;-145.37;100.00
13486;BME280;6815;59.336;17.998;2024-03-02T04:42:26;91545.16;;;-145.37;100.00
13486;BME280;6815;59.336;17.998;2024-03-02T04:44:51;91963.16;;;-145.37;100.00
13486;BME280;6815;59.336;17.998;2024-03-02T04:47:17;91379.56;;;-145.37;100.00
13486;BME280;6815;59.336;17.998;2024-03-02T04:49:42;91413.91;;;-145.37;100.00
13486;BME280;6815;59.336;17.998;2024-03-02T04:52:08;91526.97;;;-145.37;100.00
13486;BME280;6815;59.336;17.998;2024-03-02T04:54:34;91450.25;;;-145.37;100.00
13486;BME280;6815;59.336;17.998;2024-03-02T04:57:19;91514.84;;;-145.37;100.00
13486;BME280;6815;59.336;17.998;2024-03-02T04:59:46;91535.03;;;-145.37;100.00
13486;BME280;6815;59.336;17.998;2024-03-02T05:02:11;91492.63;;;-145.37;100.00
13486;BME280;6815;59.336;17.998;2024-03-02T05:04:39;91512.84;;;-145.37;100.00
13486;BME280;6815;59.336;17.998;2024-03-02T05:07:05;91524.94;;;-145.37;100.00
13486;BME280;6815;59.336;17.998;2024-03-02T05:09:30;91413.91;;;-145.37;100.00
13486;BME280;6815;59.336;17.998;2024-03-02T05:11:56;91526.97;;;-145.37;100.00
13486;BME280;6815;59.336;17.998;2024-03-02T05:14:37;91504.75;;;-145.37;100.00
13486;BME280;6815;59.336;17.998;2024-03-02T05:17:04;91516.88;;;-145.37;100.00
13486;BME280;6815;59.336;17.998;2024-03-02T05:19:29;91484.56;;;-145.37;100.00
13486;BME280;6815;59.336;17.998;2024-03-02T05:21:55;91559.28;;;-145.37;100.00
13486;BME280;6815;59.336;17.998;2024-03-02T05:24:20;91563.31;;;-145.37;100.00
13486;BME280;6815;59.336;17.998;2024-03-02T05:26:45;91351.28;;;-145.37;100.00
13486;BME280;6815;59.336;17.998;2024-03-02T05:29:11;91464.38;;;-145.37;100.00
13486;BME280;6815;59.336;17.998;2024-03-02T05:31:36;91492.63;;;-145.37;100.00
13486;BME280;6815;59.336;17.998;2024-03-02T05:34:02;91464.38;;;-145.37;100.00
13486;BME280;6815;59.336;17.998;2024-03-02T05:36:27;91460.34;;;-145.37;100.00
13486;BME280;6815;59.336;17.998;2024-03-02T05:38:53;91543.13;;;-145.37;100.00
13486;BME280;6815;59.336;17.998;2024-03-02T05:41:18;91424.00;;;-145.37;100.00
13486;BME280;6815;59.336;17.998;2024-03-02T05:43:44;91409.84;;;-145.37;100.00
13486;BME280;6815;59.336;17.998;2024-03-02T05:46:09;91555.25;;;-145.37;100.00
13486;BME280;6815;59.336;17.998;2024-03-02T05:48:34;91567.34;;;-145.37;100.00
13486;BME280;6815;59.336;17.998;2024-03-02T05:51:01;91373.50;;;-145.37;100.00
13486;BME280;6815;59.336;17.998;2024-03-02T05:53:27;91496.69;;;-145.37;100.00
13486;BME280;6815;59.336;17.998;2024-03-02T05:55:52;91458.31;;;-145.37;100.00
13486;BME280;6815;59.336;17.998;2024-03-02T05:58:21;91510.81;;;-145.37;100.00
13486;BME280;6815;59.336;17.998;2024-03-02T06:01:06;91492.63;;;-145.37;100.00
13486;BME280;6815;59.336;17.998;2024-03-02T06:03:33;91526.97;;;-145.37;100.00
13486;BME280;6815;59.336;17.998;2024-03-02T06:05:58;91345.25;;;-145.37;100.00
13486;BME280;6815;59.336;17.998;2024-03-02T06:08:25;91472.44;;;-145.37;100.00
13486;BME280;6815;59.336;17.998;2024-03-02T06:10:50;91541.09;;;-145.37;100.00
13486;BME280;6815;59.336;17.998;2024-03-02T06:13:15;91310.91;;;-145.37;100.00
13486;BME280;6815;59.336;17.998;2024-03-02T06:15:41;91492.63;;;-145.37;100.00
13486;BME280;6815;59.336;17.998;2024-03-02T06:18:06;91440.16;;;-145.37;100.00
13486;BME280;6815;59.336;17.998;2024-03-02T06:20:33;91464.38;;;-145.37;100.00
13486;BME280;6815;59.336;17.998;2024-03-02T06:22:58;91454.28;;;-145.37;100.00
13486;BME280;6815;59.336;17.998;2024-03-02T06:25:24;91446.19;;;-145.37;100.00
13486;BME280;6815;59.336;17.998;2024-03-02T06:27:51;91367.44;;;-145.37;100.00
13486;BME280;6815;59.336;17.998;2024-03-02T06:30:16;91389.66;;;-145.37;100.00
13486;BME280;6815;59.336;17.998;2024-03-02T06:32:42;91524.94;;;-145.37;100.00
13486;BME280;6815;59.336;17.998;2024-03-02T06:35:07;91480.53;;;-145.37;100.00
13486;BME280;6815;59.336;17.998;2024-03-02T06:37:38;91478.50;;;-145.37;100.00
13486;BME280;6815;59.336;17.998;2024-03-02T06:40:06;91522.94;;;-145.37;100.00
13486;BME280;6815;59.336;17.998;2024-03-02T06:42:33;91484.56;;;-145.37;100.00
13486;BME280;6815;59.336;17.998;2024-03-02T06:44:59;91529.00;;;-145.37;100.00
13486;BME280;6815;59.336;17.998;2024-03-02T06:47:24;91387.63;;;-145.37;100.00
13486;BME280;6815;59.336;17.998;2024-03-02T06:49:50;91514.84;;;-145.37;100.00
13486;BME280;6815;59.336;17.998;2024-03-02T06:52:16;91383.59;;;-145.37;100.00
13486;BME280;6815;59.336;17.998;2024-03-02T06:54:41;91492.63;;;-145.37;100.00
13486;BME280;6815;59.336;17.998;2024-03-02T06:57:07;91458.31;;;-145.37;100.00
13486;BME280;6815;59.336;17.998;2024-03-02T06:59:32;91462.34;;;-145.37;100.00
13486;BME280;6815;59.336;17.998;2024-03-02T07:01:58;91520.91;;;-145.37;100.00
13486;BME280;6815;59.336;17.998;2024-03-02T07:04:24;91153.41;;;-145.37;100.00
13486;BME280;6815;59.336;17.998;2024-03-02T07:06:49;91611.78;;;-145.37;100.00
13486;BME280;6815;59.336;17.998;2024-03-02T07:09:16;91526.97;;;-145.37;100.00
13486;BME280;6815;59.336;17.998;2024-03-02T07:11:42;91494.66;;;-145.37;100.00
13486;BME280;6815;59.336;17.998;2024-03-02T07:14:07;91488.59;;;-145.37;100.00
13486;BME280;6815;59.336;17.998;2024-03-02T07:16:32;91428.03;;;-145.37;100.00
13486;BME280;6815;59.336;17.998;2024-03-02T07:18:59;91482.53;;;-145.37;100.00
13486;BME280;6815;59.336;17.998;2024-03-02T07:21:27;91510.81;;;-145.37;100.00
13486;BME280;6815;59.336;17.998;2024-03-02T07:23:53;91496.69;;;-145.37;100.00
13486;BME280;6815;59.336;17.998;2024-03-02T07:26:19;91490.63;;;-145.37;100.00
13486;BME280;6815;59.336;17.998;2024-03-02T07:28:46;91520.91;;;-145.37;100.00
13486;BME280;6815;59.336;17.998;2024-03-02T07:31:13;91460.34;;;-145.37;100.00
13486;BME280;6815;59.336;17.998;2024-03-02T07:33:39;91484.56;;;-145.37;100.00
13486;BME280;6815;59.336;17.998;2024-03-02T07:36:05;91492.63;;;-145.37;100.00
13486;BME280;6815;59.336;17.998;2024-03-02T07:38:31;91444.19;;;-145.37;100.00
13486;BME280;6815;59.336;17.998;2024-03-02T07:40:57;91514.84;;;-145.37;100.00
13486;BME280;6815;59.336;17.998;2024-03-02T07:43:22;91434.09;;;-145.37;100.00
13486;BME280;6815;59.336;17.998;2024-03-02T07:45:49;91440.16;;;-145.37;100.00
13486;BME280;6815;59.336;17.998;2024-03-02T07:48:14;91391.69;;;-145.37;100.00
13486;BME280;6815;59.336;17.998;2024-03-02T07:50:40;91448.22;;;-145.37;100.00
13486;BME280;6815;59.336;17.998;2024-03-02T07:53:05;91333.13;;;-145.37;100.00
13486;BME280;6815;59.336;17.998;2024-03-02T07:55:33;91300.81;;;-145.37;100.00
13486;BME280;6815;59.336;17.998;2024-03-02T07:57:58;91276.59;;;-145.37;100.00
13486;BME280;6815;59.336;17.998;2024-03-02T08:00:24;91454.28;;;-145.37;100.00
13486;BME280;6815;59.336;17.998;2024-03-02T08:02:51;91333.13;;;-145.37;100.00
13486;BME280;6815;59.336;17.998;2024-03-02T08:05:19;91419.94;;;-145.37;100.00
13486;BME280;6815;59.336;17.998;2024-03-02T08:07:45;91399.75;;;-145.37;100.00
13486;BME280;6815;59.336;17.998;2024-03-02T08:10:11;91450.25;;;-145.37;100.00
13486;BME280;6815;59.336;17.998;2024-03-02T08:12:37;91476.50;;;-145.37;100.00
13486;BME280;6815;59.336;17.998;2024-03-02T08:15:04;91363.41;;;-145.37;100.00
13486;BME280;6815;59.336;17.998;2024-03-02T08:17:30;91357.34;;;-145.37;100.00
13486;BME280;6815;59.336;17.998;2024-03-02T08:19:56;91411.88;;;-145.37;100.00
13486;BME280;6815;59.336;17.998;2024-03-02T08:22:22;91375.53;;;-145.37;100.00
13486;BME280;6815;59.336;17.998;2024-03-02T08:24:47;91547.16;;;-145.37;100.00
13486;BME280;6815;59.336;17.998;2024-03-02T08:27:14;91359.38;;;-145.37;100.00
13486;BME280;6815;59.336;17.998;2024-03-02T08:29:40;91308.91;;;-145.37;100.00
13486;BME280;6815;59.336;17.998;2024-03-02T08:32:07;91405.81;;;-145.37;100.00
13486;BME280;6815;59.336;17.998;2024-03-02T08:34:32;91270.53;;;-145.37;100.00
13486;BME280;6815;59.336;17.998;2024-03-02T08:37:02;91401.78;;;-145.37;100.00
13486;BME280;6815;59.336;17.998;2024-03-02T08:39:28;91266.50;;;-145.37;100.00
13486;BME280;6815;59.336;17.998;2024-03-02T08:41:53;91331.09;;;-145.37;100.00
13486;BME280;6815;59.336;17.998;2024-03-02T08:44:19;91399.75;;;-145.37;100.00
13486;BME280;6815;59.336;17.998;2024-03-02T08:46:48;91355.34;;;-145.37;100.00
13486;BME280;6815;59.336;17.998;2024-03-02T08:49:13;91405.81;;;-145.37;100.00
13486;BME280;6815;59.336;17.998;2024-03-02T08:51:39;91456.28;;;-145.37;100.00
13486;BME280;6815;59.336;17.998;2024-03-02T08:54:04;91351.28;;;-145.37;100.00
13486;BME280;6815;59.336;17.998;2024-03-02T08:56:31;91371.50;;;-145.37;100.00
13486;BME280;6815;59.336;17.998;2024-03-02T08:58:57;91399.75;;;-145.37;100.00
13486;BME280;6815;59.336;17.998;2024-03-02T09:01:23;91434.09;;;-145.37;100.00
13486;BME280;6815;59.336;17.998;2024-03-02T09:03:49;91191.78;;;-145.37;100.00
13486;BME280;6815;59.336;17.998;2024-03-02T09:06:15;91434.09;;;-145.37;100.00
13486;BME280;6815;59.336;17.998;2024-03-02T09:08:42;91409.84;;;-145.37;100.00
13486;BME280;6815;59.336;17.998;2024-03-02T09:11:09;91387.63;;;-145.37;100.00
13486;BME280;6815;59.336;17.998;2024-03-02T09:13:36;91377.53;;;-145.37;100.00
13486;BME280;6815;59.336;17.998;2024-03-02T09:16:03;91452.25;;;-145.37;100.00
13486;BME280;6815;59.336;17.998;2024-03-02T09:18:30;91185.72;;;-145.37;100.00
13486;BME280;6815;59.336;17.998;2024-03-02T09:20:57;91415.91;;;-145.37;100.00
13486;BME280;6815;59.336;17.998;2024-03-02T09:23:22;91876.31;;;-145.37;100.00
13486;BME280;6815;59.336;17.998;2024-03-02T09:25:48;91430.03;;;-145.37;100.00
13486;BME280;6815;59.336;17.998;2024-03-02T09:28:15;91852.09;;;-145.37;100.00
13486;BME280;6815;59.336;17.998;2024-03-02T09:30:41;91912.69;;;-145.37;100.00
13486;BME280;6815;59.336;17.998;2024-03-02T09:33:06;91183.72;;;-145.37;100.00
13486;BME280;6815;59.336;17.998;2024-03-02T09:35:32;91282.66;;;-145.37;100.00
13486;BME280;6815;59.336;17.998;2024-03-02T09:37:57;91375.53;;;-145.37;100.00
13486;BME280;6815;59.336;17.998;2024-03-02T09:40:23;91161.50;;;-145.37;100.00
13486;BME280;6815;59.336;17.998;2024-03-02T09:42:49;91367.44;;;-145.37;100.00
13486;BME280;6815;59.336;17.998;2024-03-02T09:45:22;91169.56;;;-145.37;100.00
13486;BME280;6815;59.336;17.998;2024-03-02T09:47:48;91401.78;;;-145.37;100.00
13486;BME280;6815;59.336;17.998;2024-03-02T09:50:14;91333.13;;;-145.37;100.00
13486;BME280;6815;59.336;17.998;2024-03-02T09:52:42;91327.06;;;-145.37;100.00
13486;BME280;6815;59.336;17.998;2024-03-02T09:55:08;91510.81;;;-145.37;100.00
13486;BME280;6815;59.336;17.998;2024-03-02T09:57:35;91387.63;;;-145.37;100.00
13486;BME280;6815;59.336;17.998;2024-03-02T10:00:01;91383.59;;;-145.37;100.00
13486;BME280;6815;59.336;17.998;2024-03-02T10:02:26;91387.63;;;-145.37;100.00
13486;BME280;6815;59.336;17.998;2024-03-02T10:04:51;91113.03;;;-145.37;100.00
13486;BME280;6815;59.336;17.998;2024-03-02T10:07:18;91377.53;;;-145.37;100.00
13486;BME280;6815;59.336;17.998;2024-03-02T10:09:49;91381.59;;;-145.37;100.00
13486;BME280;6815;59.336;17.998;2024-03-02T10:12:17;91304.84;;;-145.37;100.00
13486;BME280;6815;59.336;17.998;2024-03-02T10:14:44;91419.94;;;-145.37;100.00
13486;BME280;6815;59.336;17.998;2024-03-02T10:17:11;91391.69;;;-145.37;100.00
13486;BME280;6815;59.336;17.998;2024-03-02T10:19:38;91294.75;;;-145.37;100.00
13486;BME280;6815;59.336;17.998;2024-03-02T10:22:06;91270.53;;;-145.37;100.00
13486;BME280;6815;59.336;17.998;2024-03-02T10:24:40;91341.19;;;-145.37;100.00
13486;BME280;6815;59.336;17.998;2024-03-02T10:27:09;91395.72;;;-145.37;100.00
13486;BME280;6815;59.336;17.998;2024-03-02T10:29:40;91082.75;;;-145.37;100.00
13486;BME280;6815;59.336;17.998;2024-03-02T10:32:09;91296.78;;;-145.37;100.00
13486;BME280;6815;59.336;17.998;2024-03-02T10:34:35;91363.41;;;-145.37;100.00
13486;BME280;6815;59.336;17.998;2024-03-02T10:37:01;91339.19;;;-145.37;100.00
13486;BME280;6815;59.336;17.998;2024-03-02T10:39:27;91385.63;;;-145.37;100.00
13486;BME280;6815;59.336;17.998;2024-03-02T10:41:53;91355.34;;;-145.37;100.00
13486;BME280;6815;59.336;17.998;2024-03-02T10:44:22;91316.97;;;-145.37;100.00
13486;BME280;6815;59.336;17.998;2024-03-02T10:46:49;91405.81;;;-145.37;100.00
13486;BME280;6815;59.336;17.998;2024-03-02T10:49:16;91371.50;;;-145.37;100.00
13486;BME280;6815;59.336;17.998;2024-03-02T10:51:42;91823.81;;;-145.37;100.00
13486;BME280;6815;59.336;17.998;2024-03-02T10:54:07;91379.56;;;-145.37;100.00
13486;BME280;6815;59.336;17.998;2024-03-02T10:56:34;91371.50;;;-145.37;100.00
13486;BME280;6815;59.336;17.998;2024-03-02T11:01:58;91395.72;;;-145.37;100.00
13486;BME280;6815;59.336;17.998;2024-03-02T11:04:25;91343.22;;;-145.37;99.90
13486;BME280;6815;59.336;17.998;2024-03-02T11:07:02;90838.47;;;-145.37;100.00
13486;BME280;6815;59.336;17.998;2024-03-02T11:09:30;91343.22;;;-145.37;99.78
13486;BME280;6815;59.336;17.998;2024-03-02T11:12:19;91323.03;;;-145.37;99.83
13486;BME280;6815;59.336;17.998;2024-03-02T11:14:48;91310.91;;;-145.37;99.45
13486;BME280;6815;59.336;17.998;2024-03-02T11:17:17;91329.09;;;-145.37;99.48
13486;BME280;6815;59.336;17.998;2024-03-02T11:19:44;91395.72;;;-145.37;99.60
13486;BME280;6815;59.336;17.998;2024-03-02T11:22:11;90808.19;;;-145.37;99.72
13486;BME280;6815;59.336;17.998;2024-03-02T11:24:37;91264.47;;;-145.37;99.70
13486;BME280;6815;59.336;17.998;2024-03-02T11:27:04;91306.88;;;-145.37;99.65
13486;BME280;6815;59.336;17.998;2024-03-02T11:34:35;91276.59;;;-145.37;99.23
13486;BME280;6815;59.336;17.998;2024-03-02T11:37:05;91373.50;;;-145.37;98.97
13486;BME280;6815;59.336;17.998;2024-03-02T11:39:30;91377.53;;;-145.37;99.27
13486;BME280;6815;59.336;17.998;2024-03-02T11:41:57;91244.28;;;-145.37;99.00
13486;BME280;6815;59.336;17.998;2024-03-02T11:44:24;91341.19;;;-145.37;99.25
13486;BME280;6815;59.336;17.998;2024-03-02T11:47:00;91333.13;;;-145.37;99.17
13486;BME280;6815;59.336;17.998;2024-03-02T11:49:43;91371.50;;;-145.37;98.77
13486;BME280;6815;59.336;17.998;2024-03-02T11:52:15;91403.78;;;-145.37;99.06
13486;BME280;6815;59.336;17.998;2024-03-02T11:54:43;91351.28;;;-145.37;98.96
13486;BME280;6815;59.336;17.998;2024-03-02T11:57:17;91355.34;;;-145.37;99.12
13486;BME280;6815;59.336;17.998;2024-03-02T11:59:43;91361.38;;;-145.37;99.23
13486;BME280;6815;59.336;17.998;2024-03-02T12:02:15;91401.78;;;-145.37;98.94
13486;BME280;6815;59.336;17.998;2024-03-02T12:04:42;91187.75;;;-145.37;99.00
13486;BME280;6815;59.336;17.998;2024-03-02T12:07:08;91365.44;;;-145.37;98.59
13486;BME280;6815;59.336;17.998;2024-03-02T12:09:34;91244.28;;;-145.37;98.74
13486;BME280;6815;59.336;17.998;2024-03-02T12:12:07;91395.72;;;-145.37;98.74
13486;BME280;6815;59.336;17.998;2024-03-02T12:14:34;91375.53;;;-145.37;98.51
13486;BME280;6815;59.336;17.998;2024-03-02T12:17:01;91369.47;;;-145.37;98.71
13486;BME280;6815;59.336;17.998;2024-03-02T12:19:28;91383.59;;;-145.37;98.30
13486;BME280;6815;59.336;17.998;2024-03-02T12:21:59;91373.50;;;-145.37;98.59
13486;BME280;6815;59.336;17.998;2024-03-02T12:24:26;91373.50;;;-145.37;98.56
13486;BME280;6815;59.336;17.998;2024-03-02T12:26:53;91385.63;;;-145.37;98.25
13486;BME280;6815;59.336;17.998;2024-03-02T12:29:20;91290.72;;;-145.37;98.37
13486;BME280;6815;59.336;17.998;2024-03-02T12:31:48;91327.06;;;-145.37;98.58
13486;BME280;6815;59.336;17.998;2024-03-02T12:34:15;91254.38;;;-145.37;98.28
13486;BME280;6815;59.336;17.998;2024-03-02T12:36:41;91230.16;;;-145.37;98.61
13486;BME280;6815;59.336;17.998;2024-03-02T12:39:10;91361.38;;;-145.37;98.71
13486;BME280;6815;59.336;17.998;2024-03-02T12:41:36;91373.50;;;-145.37;98.47